createdAt,value
2024-04-08T00:01:08.392Z,100193.46
2024-04-08T00:05:30.475Z,100187.59
2024-04-08T00:09:32.679Z,100187.33
2024-04-08T00:13:40.651Z,100188.46
2024-04-08T00:17:44.726Z,100191.93
2024-04-08T00:21:47.010Z,100192.55
2024-04-08T00:25:49.201Z,100194.02
2024-04-08T00:29:51.960Z,100190.30
2024-04-08T00:33:54.196Z,100192.91
2024-04-08T00:37:56.336Z,100195.60
2024-04-08T00:41:59.247Z,100198.15
2024-04-08T00:46:02.341Z,100202.42
2024-04-08T00:50:04.903Z,100198.99
2024-04-08T00:54:07.317Z,100197.51
2024-04-08T00:58:10.064Z,100198.61
2024-04-08T01:02:12.556Z,100200.60
2024-04-08T01:06:14.873Z,100200.67
2024-04-08T01:10:18.632Z,100202.70
2024-04-08T01:14:21.061Z,100202.55
2024-04-08T01:18:23.238Z,100199.80
2024-04-08T01:22:27.537Z,100198.23
2024-04-08T01:26:29.770Z,100198.74
2024-04-08T01:30:31.987Z,100195.35
2024-04-08T01:34:34.177Z,100193.60
2024-04-08T01:38:40.563Z,100186.40
2024-04-08T01:42:42.786Z,100180.25
2024-04-08T01:46:44.901Z,100177.19
2024-04-08T01:50:47.125Z,100174.33
2024-04-08T01:54:49.277Z,100171.95
2024-04-08T01:58:51.615Z,100177.55
2024-04-08T02:02:53.909Z,100178.26
2024-04-08T02:06:56.059Z,100174.77
2024-04-08T02:10:58.320Z,100176.80
2024-04-08T02:15:00.673Z,100179.83
2024-04-08T02:19:02.996Z,100172.52
2024-04-08T02:23:05.242Z,100175.13
2024-04-08T02:27:09.417Z,100175.05
2024-04-08T02:31:12.546Z,100168.45
2024-04-08T02:35:16.967Z,100165.27
2024-04-08T02:39:19.155Z,100168.31
2024-04-08T02:43:23.309Z,100160.11
2024-04-08T02:47:25.541Z,100159.41
2024-04-08T02:51:27.833Z,100160.48
2024-04-08T02:55:29.928Z,100166.05
2024-04-08T02:59:32.108Z,100160.01
2024-04-08T03:03:34.250Z,100154.05
2024-04-08T03:07:36.445Z,100153.52
2024-04-08T03:11:38.648Z,100161.69
2024-04-08T03:15:40.901Z,100160.30
2024-04-08T03:19:43.106Z,100156.17
2024-04-08T03:23:45.920Z,100153.11
2024-04-08T03:27:51.919Z,100149.05
2024-04-08T03:31:54.038Z,100155.67
2024-04-08T03:35:56.741Z,100155.95
2024-04-08T03:39:58.951Z,100153.81
2024-04-08T03:44:01.226Z,100158.08
2024-04-08T03:48:04.139Z,100156.36
2024-04-08T03:52:06.776Z,100148.85
2024-04-08T03:56:10.887Z,100154.90
2024-04-08T04:00:13.805Z,100142.08
2024-04-08T04:04:25.238Z,100136.17
2024-04-08T04:08:27.437Z,100137.52
2024-04-08T04:12:29.836Z,100128.79
2024-04-08T04:16:32.240Z,100128.63
2024-04-08T04:20:42.183Z,100126.45
2024-04-08T04:24:44.590Z,100135.32
2024-04-08T04:28:46.752Z,100135.39
2024-04-08T04:32:49.041Z,100133.89
2024-04-08T04:36:51.254Z,100137.05
2024-04-08T04:41:04.464Z,100148.77
2024-04-08T04:45:06.687Z,100140.80
2024-04-08T04:49:08.853Z,100141.94
2024-04-08T04:53:11.400Z,100142.41
2024-04-08T04:57:13.566Z,100144.69
2024-04-08T05:01:15.740Z,100149.69
2024-04-08T05:05:17.983Z,100147.05
2024-04-08T05:09:21.484Z,100152.59
2024-04-08T05:13:23.717Z,100157.44
2024-04-08T05:17:25.892Z,100159.47
2024-04-08T05:21:28.277Z,100155.24
2024-04-08T05:25:30.471Z,100155.83
2024-04-08T05:29:36.780Z,100152.55
2024-04-08T05:33:39.400Z,100155.17
2024-04-08T05:37:41.896Z,100164.41
2024-04-08T05:41:44.097Z,100166.65
2024-04-08T05:45:49.428Z,100167.27
2024-04-08T05:49:51.705Z,100170.08
2024-04-08T05:53:54.091Z,100166.61
2024-04-08T05:57:56.271Z,100167.84
2024-04-08T06:01:58.496Z,100165.52
2024-04-08T06:06:00.855Z,100173.38
2024-04-08T06:10:03.471Z,100178.69
2024-04-08T06:14:05.745Z,100175.38
2024-04-08T06:18:08.331Z,100172.42
2024-04-08T06:22:14.792Z,100176.81
2024-04-08T06:26:18.689Z,100174.67
2024-04-08T06:30:20.990Z,100171.58
2024-04-08T06:34:23.235Z,100168.29
2024-04-08T06:38:25.397Z,100162.27
2024-04-08T06:42:27.635Z,100162.73
2024-04-08T06:46:29.729Z,100168.06
2024-04-08T06:50:31.990Z,100162.58
2024-04-08T06:54:34.227Z,100162.02
2024-04-08T06:58:36.731Z,100163.20
2024-04-08T07:02:39.370Z,100165.95
2024-04-08T07:06:41.587Z,100170.58
2024-04-08T07:10:46.841Z,100173.48
2024-04-08T07:14:55.636Z,100176.80
2024-04-08T07:18:57.936Z,100180.52
2024-04-08T07:23:00.121Z,100180.72
2024-04-08T07:27:06.260Z,100184.02
2024-04-08T07:31:08.432Z,100183.23
2024-04-08T07:35:13.761Z,100182.81
2024-04-08T07:39:16.133Z,100177.55
2024-04-08T07:43:18.388Z,100177.12
2024-04-08T07:47:21.033Z,100181.86
2024-04-08T07:51:24.957Z,100171.56
2024-04-08T07:55:27.137Z,100170.75
2024-04-08T07:59:29.254Z,100167.44
2024-04-08T08:03:32.144Z,100166.06
2024-04-08T08:07:34.349Z,100166.51
2024-04-08T08:11:36.631Z,100170.42
2024-04-08T08:15:38.811Z,100169.48
2024-04-08T08:19:41.018Z,100166.85
2024-04-08T08:23:43.283Z,100166.02
2024-04-08T08:27:45.450Z,100169.80
2024-04-08T08:31:47.739Z,100165.50
2024-04-08T08:35:49.899Z,100162.23
2024-04-08T08:39:52.071Z,100158.69
2024-04-08T08:43:58.047Z,100149.09
2024-04-08T08:48:00.446Z,100151.37
2024-04-08T08:52:07.996Z,100154.68
2024-04-08T08:56:15.104Z,100157.05
2024-04-08T09:00:17.459Z,100156.52
2024-04-08T09:04:20.020Z,100154.42
2024-04-08T09:08:23.871Z,100146.85
2024-04-08T09:12:28.327Z,100144.38
2024-04-08T09:16:30.524Z,100139.33
2024-04-08T09:20:32.700Z,100135.08
2024-04-08T09:24:35.564Z,100130.31
2024-04-08T09:28:37.795Z,100135.04
2024-04-08T09:32:39.984Z,100134.75
2024-04-08T09:36:43.209Z,100125.32
2024-04-08T09:40:47.014Z,100114.84
2024-04-08T09:44:50.386Z,100113.73
2024-04-08T09:48:53.716Z,100106.91
2024-04-08T09:52:56.295Z,100105.42
2024-04-08T09:57:04.022Z,100101.80
2024-04-08T10:01:06.920Z,100099.64
2024-04-08T10:05:09.150Z,100094.30
2024-04-08T10:09:12.119Z,100093.61
2024-04-08T10:13:16.024Z,100095.69
2024-04-08T10:17:19.926Z,100093.11
2024-04-08T10:21:24.273Z,100091.77
2024-04-08T10:25:43.498Z,100092.87
2024-04-08T10:29:45.939Z,100087.34
2024-04-08T10:33:48.137Z,100086.82
2024-04-08T10:37:50.775Z,100085.96
2024-04-08T10:42:14.001Z,100085.82
2024-04-08T10:46:18.716Z,100079.89
2024-04-08T10:50:20.776Z,100076.81
2024-04-08T10:54:22.871Z,100069.39
2024-04-08T10:58:25.048Z,100062.60
2024-04-08T11:02:27.359Z,100061.34
2024-04-08T11:06:29.774Z,100053.46
2024-04-08T11:10:32.193Z,100052.99
2024-04-08T11:14:35.185Z,100046.67
2024-04-08T11:18:38.815Z,100040.66
2024-04-08T11:22:41.068Z,100036.78
2024-04-08T11:26:52.497Z,100030.98
2024-04-08T11:30:58.346Z,100026.24
2024-04-08T11:35:00.536Z,100019.79
2024-04-08T11:39:04.130Z,100015.34
2024-04-08T11:43:06.357Z,100012.34
2024-04-08T11:47:10.626Z,100006.14
2024-04-08T11:51:12.782Z,100001.15
2024-04-08T11:55:15.113Z,99999.05
2024-04-08T11:59:17.255Z,99987.55
2024-04-08T12:03:19.444Z,99982.86
2024-04-08T12:07:22.254Z,99975.86
2024-04-08T12:11:24.743Z,99982.52
2024-04-08T12:15:26.981Z,99979.29
2024-04-08T12:19:29.391Z,99974.27
2024-04-08T12:23:32.075Z,99974.73
2024-04-08T12:27:34.309Z,99970.80
2024-04-08T12:31:36.465Z,99964.15
2024-04-08T12:35:38.656Z,99963.67
2024-04-08T12:39:41.136Z,99961.33
2024-04-08T12:43:51.078Z,99956.33
2024-04-08T12:47:57.812Z,99954.61
2024-04-08T12:51:59.916Z,99947.51
2024-04-08T12:56:04.209Z,99940.17
2024-04-08T13:00:09.897Z,99931.21
2024-04-08T13:04:12.108Z,99927.15
2024-04-08T13:08:14.395Z,99925.11
2024-04-08T13:12:16.586Z,99921.34
2024-04-08T13:16:18.858Z,99925.95
2024-04-08T13:20:21.162Z,99926.14
2024-04-08T13:24:23.457Z,99921.98
2024-04-08T13:28:25.784Z,99923.69
2024-04-08T13:32:28.336Z,99921.50
2024-04-08T13:36:30.700Z,99919.27
2024-04-08T13:40:32.830Z,99921.20
2024-04-08T13:44:35.003Z,99924.02
2024-04-08T13:48:37.332Z,99921.47
2024-04-08T13:52:39.611Z,99916.03
2024-04-08T13:56:41.676Z,99914.46
2024-04-08T14:00:44.272Z,99908.91
2024-04-08T14:04:46.615Z,99900.55
2024-04-08T14:08:48.808Z,99896.64
2024-04-08T14:12:51.069Z,99897.95
2024-04-08T14:16:53.186Z,99901.93
2024-04-08T14:20:56.308Z,99901.86
2024-04-08T14:24:58.518Z,99899.41
2024-04-08T14:29:00.633Z,99900.98
2024-04-08T14:33:05.660Z,99895.86
2024-04-08T14:37:07.912Z,99894.27
2024-04-08T14:41:10.128Z,99890.52
2024-04-08T14:45:12.356Z,99890.02
2024-04-08T14:49:14.535Z,99882.46
2024-04-08T14:53:17.106Z,99883.73
2024-04-08T14:57:19.783Z,99879.44
2024-04-08T15:01:21.993Z,99879.95
2024-04-08T15:05:24.152Z,99873.13
2024-04-08T15:09:26.591Z,99873.29
2024-04-08T15:13:29.265Z,99873.38
2024-04-08T15:17:31.552Z,99873.66
2024-04-08T15:21:33.899Z,99874.31
2024-04-08T15:25:36.096Z,99873.40
2024-04-08T15:29:38.217Z,99874.52
2024-04-08T15:33:41.232Z,99876.19
2024-04-08T15:37:43.872Z,99870.85
2024-04-08T15:41:46.102Z,99872.50
2024-04-08T15:45:59.208Z,99873.85
2024-04-08T15:50:01.356Z,99875.24
2024-04-08T15:54:07.326Z,99875.63
2024-04-08T15:58:10.640Z,99880.93
2024-04-08T16:02:12.801Z,99878.55
2024-04-08T16:06:15.609Z,99877.52
2024-04-08T16:10:19.439Z,99883.11
2024-04-08T16:14:21.781Z,99879.03
2024-04-08T16:18:24.796Z,99880.91
2024-04-08T16:22:31.269Z,99878.45
2024-04-08T16:26:41.351Z,99881.92
2024-04-08T16:30:53.022Z,99884.95
2024-04-08T16:34:55.299Z,99886.73
2024-04-08T16:38:58.057Z,99881.48
2024-04-08T16:43:00.383Z,99878.11
2024-04-08T16:47:02.881Z,99877.46
2024-04-08T16:51:05.139Z,99877.42
2024-04-08T16:55:08.570Z,99878.30
2024-04-08T16:59:10.917Z,99874.63
2024-04-08T17:03:13.155Z,99876.97
2024-04-08T17:07:15.836Z,99877.55
2024-04-08T17:11:18.110Z,99878.02
2024-04-08T17:15:22.743Z,99879.98
2024-04-08T17:19:25.348Z,99881.55
2024-04-08T17:23:27.664Z,99881.52
2024-04-08T17:27:30.444Z,99883.09
2024-04-08T17:31:32.741Z,99885.42
2024-04-08T17:35:40.485Z,99882.31
2024-04-08T17:39:42.790Z,99879.41
2024-04-08T17:43:57.720Z,99881.10
2024-04-08T17:48:00.286Z,99882.13
2024-04-08T17:52:02.688Z,99879.20
2024-04-08T17:56:06.964Z,99879.48
2024-04-08T18:00:09.515Z,99885.00
2024-04-08T18:04:11.933Z,99891.20
2024-04-08T18:08:15.174Z,99889.44
2024-04-08T18:12:17.855Z,99888.23
2024-04-08T18:16:22.631Z,99882.77
2024-04-08T18:20:26.522Z,99885.80
2024-04-08T18:24:28.695Z,99882.17
2024-04-08T18:28:31.126Z,99880.45
2024-04-08T18:32:33.623Z,99883.24
2024-04-08T18:36:35.918Z,99885.70
2024-04-08T18:40:38.051Z,99882.25
2024-04-08T18:44:40.237Z,99883.63
2024-04-08T18:48:42.737Z,99881.95
2024-04-08T18:52:47.054Z,99879.41
2024-04-08T18:56:49.282Z,99883.21
2024-04-08T19:00:51.447Z,99882.38
2024-04-08T19:04:53.810Z,99886.10
2024-04-08T19:08:56.501Z,99887.81
2024-04-08T19:12:58.730Z,99886.13
2024-04-08T19:17:03.815Z,99886.57
2024-04-08T19:21:06.692Z,99880.02
2024-04-08T19:25:08.989Z,99880.31
2024-04-08T19:29:11.151Z,99876.60
2024-04-08T19:33:13.391Z,99876.48
2024-04-08T19:37:15.590Z,99875.55
2024-04-08T19:41:17.786Z,99874.29
2024-04-08T19:45:25.438Z,99871.84
2024-04-08T19:49:32.017Z,99871.73
2024-04-08T19:53:34.187Z,99877.38
2024-04-08T19:57:36.605Z,99872.15
2024-04-08T20:01:38.812Z,99871.01
2024-04-08T20:05:40.981Z,99869.30
2024-04-08T20:09:43.196Z,99863.11
2024-04-08T20:13:47.359Z,99867.83
2024-04-08T20:17:52.182Z,99866.22
2024-04-08T20:21:54.394Z,99865.02
2024-04-08T20:25:57.486Z,99863.46
2024-04-08T20:30:00.608Z,99858.56
2024-04-08T20:34:06.528Z,99854.59
2024-04-08T20:38:09.341Z,99853.91
2024-04-08T20:42:12.102Z,99854.11
2024-04-08T20:46:14.346Z,99864.10
2024-04-08T20:50:16.618Z,99862.87
2024-04-08T20:54:19.002Z,99861.32
2024-04-08T20:58:21.587Z,99863.48
2024-04-08T21:02:23.909Z,99866.40
2024-04-08T21:06:26.945Z,99863.27
2024-04-08T21:10:29.243Z,99855.70
2024-04-08T21:14:31.360Z,99853.94
2024-04-08T21:18:35.604Z,99852.90
2024-04-08T21:22:38.063Z,99852.33
2024-04-08T21:26:40.254Z,99851.45
2024-04-08T21:30:51.886Z,99849.02
2024-04-08T21:34:53.971Z,99846.92
2024-04-08T21:38:56.180Z,99840.88
2024-04-08T21:42:58.417Z,99834.02
2024-04-08T21:47:00.669Z,99832.64
2024-04-08T21:51:05.417Z,99832.07
2024-04-08T21:55:07.883Z,99832.66
2024-04-08T21:59:10.176Z,99830.91
2024-04-08T22:03:12.850Z,99830.88
2024-04-08T22:07:15.247Z,99833.05
2024-04-08T22:11:17.559Z,99828.85
2024-04-08T22:15:19.785Z,99825.64
2024-04-08T22:19:21.988Z,99827.51
2024-04-08T22:23:24.148Z,99833.55
2024-04-08T22:27:26.448Z,99829.10
2024-04-08T22:31:28.678Z,99828.02
2024-04-08T22:35:30.961Z,99827.89
2024-04-08T22:39:33.294Z,99826.28
2024-04-08T22:43:35.565Z,99822.77
2024-04-08T22:47:37.820Z,99818.75
2024-04-08T22:51:41.437Z,99813.33
2024-04-08T22:55:43.756Z,99816.77
2024-04-08T22:59:46.000Z,99814.90
2024-04-08T23:03:48.422Z,99817.52
2024-04-08T23:07:50.643Z,99814.60
2024-04-08T23:11:53.334Z,99812.20
2024-04-08T23:15:55.560Z,99809.38
2024-04-08T23:19:58.734Z,99802.04
2024-04-08T23:24:00.902Z,99802.27
2024-04-08T23:28:04.439Z,99799.91
2024-04-08T23:32:06.803Z,99799.61
2024-04-08T23:36:09.156Z,99798.73
2024-04-08T23:40:13.824Z,99798.33
2024-04-08T23:44:16.234Z,99797.10
2024-04-08T23:48:18.597Z,99797.88
2024-04-08T23:52:20.945Z,99797.56
2024-04-08T23:56:23.184Z,99799.19
